sensor_id;sensor_type;location;lat;lon;timestamp;pressure;altitude;pressure_sealevel;temperature;humidity
18678;BME280;9469;51.114;13.914;2023-06-10T00:00:35;98588.53;;;19.58;100.00
18678;BME280;9469;51.114;13.914;2023-06-10T00:05:41;98593.06;;;19.76;100.00
18678;BME280;9469;51.114;13.914;2023-06-10T00:10:53;98588.38;;;19.99;100.00
18678;BME280;9469;51.114;13.914;2023-06-10T00:15:58;98592.38;;;19.83;100.00
18678;BME280;9469;51.114;13.914;2023-06-10T00:21:06;98599.72;;;19.86;100.00
18678;BME280;9469;51.114;13.914;2023-06-10T00:26:14;98601.75;;;19.66;100.00
18678;BME280;9469;51.114;13.914;2023-06-10T00:31:22;98607.13;;;19.40;100.00
18678;BME280;9469;51.114;13.914;2023-06-10T00:36:28;98622.56;;;19.01;100.00
18678;BME280;9469;51.114;13.914;2023-06-10T00:41:36;98635.28;;;18.82;100.00
18678;BME280;9469;51.114;13.914;2023-06-10T00:46:42;98640.50;;;18.21;100.00
18678;BME280;9469;51.114;13.914;2023-06-10T00:51:47;98635.66;;;18.61;100.00
18678;BME280;9469;51.114;13.914;2023-06-10T00:56:56;98636.38;;;18.42;100.00
18678;BME280;9469;51.114;13.914;2023-06-10T01:02:01;98647.09;;;18.23;100.00
18678;BME280;9469;51.114;13.914;2023-06-10T01:07:14;98651.84;;;17.95;100.00
18678;BME280;9469;51.114;13.914;2023-06-10T01:12:29;98649.84;;;18.08;100.00
18678;BME280;9469;51.114;13.914;2023-06-10T01:17:37;98661.34;;;18.24;100.00
18678;BME280;9469;51.114;13.914;2023-06-10T01:22:58;98657.41;;;18.37;100.00
18678;BME280;9469;51.114;13.914;2023-06-10T01:28:10;98641.53;;;18.47;100.00
18678;BME280;9469;51.114;13.914;2023-06-10T01:33:25;98646.16;;;18.31;100.00
18678;BME280;9469;51.114;13.914;2023-06-10T01:38:39;98653.78;;;18.64;100.00
18678;BME280;9469;51.114;13.914;2023-06-10T01:43:45;98647.81;;;18.55;100.00
18678;BME280;9469;51.114;13.914;2023-06-10T01:48:53;98658.13;;;18.34;100.00
18678;BME280;9469;51.114;13.914;2023-06-10T01:54:01;98667.00;;;18.19;100.00
18678;BME280;9469;51.114;13.914;2023-06-10T01:59:09;98679.81;;;17.90;100.00
18678;BME280;9469;51.114;13.914;2023-06-10T02:04:14;98674.22;;;18.15;100.00
18678;BME280;9469;51.114;13.914;2023-06-10T02:09:22;98679.19;;;17.97;100.00
18678;BME280;9469;51.114;13.914;2023-06-10T02:14:29;98683.38;;;17.79;100.00
18678;BME280;9469;51.114;13.914;2023-06-10T02:19:34;98689.00;;;17.58;100.00
18678;BME280;9469;51.114;13.914;2023-06-10T02:24:48;98687.28;;;17.66;100.00
18678;BME280;9469;51.114;13.914;2023-06-10T02:29:53;98690.91;;;17.73;100.00
18678;BME280;9469;51.114;13.914;2023-06-10T02:34:59;98691.69;;;17.58;100.00
18678;BME280;9469;51.114;13.914;2023-06-10T02:40:10;98688.75;;;17.79;100.00
18678;BME280;9469;51.114;13.914;2023-06-10T02:45:16;98690.22;;;17.76;100.00
18678;BME280;9469;51.114;13.914;2023-06-10T02:50:24;98675.72;;;17.81;100.00
18678;BME280;9469;51.114;13.914;2023-06-10T02:55:43;98679.66;;;17.68;100.00
18678;BME280;9469;51.114;13.914;2023-06-10T03:00:51;98682.50;;;17.59;100.00
18678;BME280;9469;51.114;13.914;2023-06-10T03:06:01;98686.31;;;17.58;100.00
18678;BME280;9469;51.114;13.914;2023-06-10T03:11:10;98686.06;;;17.63;100.00
18678;BME280;9469;51.114;13.914;2023-06-10T03:16:16;98698.47;;;17.83;100.00
18678;BME280;9469;51.114;13.914;2023-06-10T03:21:22;98685.38;;;17.98;100.00
18678;BME280;9469;51.114;13.914;2023-06-10T03:26:33;98689.00;;;18.05;100.00
18678;BME280;9469;51.114;13.914;2023-06-10T03:31:41;98692.66;;;17.97;100.00
18678;BME280;9469;51.114;13.914;2023-06-10T03:36:47;98693.53;;;17.85;100.00
18678;BME280;9469;51.114;13.914;2023-06-10T03:41:55;98699.31;;;18.03;100.00
18678;BME280;9469;51.114;13.914;2023-06-10T03:47:03;98700.56;;;17.90;100.00
18678;BME280;9469;51.114;13.914;2023-06-10T03:52:09;98701.94;;;18.00;100.00
18678;BME280;9469;51.114;13.914;2023-06-10T03:57:17;98703.66;;;18.23;100.00
18678;BME280;9469;51.114;13.914;2023-06-10T04:02:23;98716.59;;;18.18;100.00
18678;BME280;9469;51.114;13.914;2023-06-10T04:07:30;98721.28;;;18.21;100.00
18678;BME280;9469;51.114;13.914;2023-06-10T04:12:39;98719.88;;;18.42;100.00
18678;BME280;9469;51.114;13.914;2023-06-10T04:17:44;98728.03;;;18.46;100.00
18678;BME280;9469;51.114;13.914;2023-06-10T04:22:54;98720.66;;;18.27;100.00
18678;BME280;9469;51.114;13.914;2023-06-10T04:28:02;98721.81;;;18.26;100.00
18678;BME280;9469;51.114;13.914;2023-06-10T04:33:08;98713.06;;;18.64;100.00
18678;BME280;9469;51.114;13.914;2023-06-10T04:38:15;98716.13;;;18.82;100.00
18678;BME280;9469;51.114;13.914;2023-06-10T04:43:26;98719.69;;;19.05;100.00
18678;BME280;9469;51.114;13.914;2023-06-10T04:48:34;98722.81;;;19.26;100.00
18678;BME280;9469;51.114;13.914;2023-06-10T04:53:40;98717.19;;;19.34;100.00
18678;BME280;9469;51.114;13.914;2023-06-10T04:58:48;98713.88;;;19.86;100.00
18678;BME280;9469;51.114;13.914;2023-06-10T05:03:54;98711.06;;;19.57;100.00
18678;BME280;9469;51.114;13.914;2023-06-10T05:08:59;98722.47;;;19.92;100.00
18678;BME280;9469;51.114;13.914;2023-06-10T05:14:08;98724.97;;;20.04;100.00
18678;BME280;9469;51.114;13.914;2023-06-10T05:19:15;98722.75;;;20.32;100.00
18678;BME280;9469;51.114;13.914;2023-06-10T05:24:21;98738.47;;;20.27;100.00
18678;BME280;9469;51.114;13.914;2023-06-10T05:29:29;98738.22;;;21.17;98.78
18678;BME280;9469;51.114;13.914;2023-06-10T05:34:35;98741.81;;;21.65;93.98
18678;BME280;9469;51.114;13.914;2023-06-10T05:39:41;98739.81;;;21.95;93.19
18678;BME280;9469;51.114;13.914;2023-06-10T05:44:49;98751.00;;;22.38;91.54
18678;BME280;9469;51.114;13.914;2023-06-10T05:49:54;98733.81;;;23.74;86.62
18678;BME280;9469;51.114;13.914;2023-06-10T05:54:59;98736.47;;;24.94;81.26
18678;BME280;9469;51.114;13.914;2023-06-10T06:00:09;98741.69;;;25.47;80.07
18678;BME280;9469;51.114;13.914;2023-06-10T06:05:19;98735.66;;;25.80;78.44
18678;BME280;9469;51.114;13.914;2023-06-10T06:10:25;98735.16;;;26.40;77.99
18678;BME280;9469;51.114;13.914;2023-06-10T06:15:32;98736.94;;;27.58;72.61
18678;BME280;9469;51.114;13.914;2023-06-10T06:20:37;98742.53;;;25.92;73.55
18678;BME280;9469;51.114;13.914;2023-06-10T06:25:43;98746.25;;;23.86;83.34
18678;BME280;9469;51.114;13.914;2023-06-10T06:30:50;98753.50;;;22.60;89.52
18678;BME280;9469;51.114;13.914;2023-06-10T06:36:03;98754.34;;;22.71;90.99
18678;BME280;9469;51.114;13.914;2023-06-10T06:41:08;98747.63;;;23.30;91.62
18678;BME280;9469;51.114;13.914;2023-06-10T06:46:16;98759.66;;;23.33;91.05
18678;BME280;9469;51.114;13.914;2023-06-10T06:51:22;98762.03;;;25.14;84.55
18678;BME280;9469;51.114;13.914;2023-06-10T06:56:27;98773.78;;;23.91;85.49
18678;BME280;9469;51.114;13.914;2023-06-10T07:01:35;98782.41;;;22.46;88.45
18678;BME280;9469;51.114;13.914;2023-06-10T07:06:41;98787.66;;;22.72;88.78
18678;BME280;9469;51.114;13.914;2023-06-10T07:11:50;98795.22;;;22.49;91.73
18678;BME280;9469;51.114;13.914;2023-06-10T07:16:58;98794.13;;;22.57;88.90
18678;BME280;9469;51.114;13.914;2023-06-10T07:22:03;98802.72;;;22.66;90.62
18678;BME280;9469;51.114;13.914;2023-06-10T07:27:11;98807.31;;;23.20;91.23
18678;BME280;9469;51.114;13.914;2023-06-10T07:32:19;98805.09;;;23.36;88.57
18678;BME280;9469;51.114;13.914;2023-06-10T07:37:25;98811.28;;;23.43;87.49
18678;BME280;9469;51.114;13.914;2023-06-10T07:42:31;98817.16;;;23.49;88.69
18678;BME280;9469;51.114;13.914;2023-06-10T07:47:42;98798.69;;;24.53;83.22
18678;BME280;9469;51.114;13.914;2023-06-10T07:52:48;98811.53;;;24.17;83.07
18678;BME280;9469;51.114;13.914;2023-06-10T07:57:53;98809.53;;;24.67;80.91
18678;BME280;9469;51.114;13.914;2023-06-10T08:03:03;98813.81;;;24.97;79.08
18678;BME280;9469;51.114;13.914;2023-06-10T08:08:09;98808.38;;;24.54;81.15
18678;BME280;9469;51.114;13.914;2023-06-10T08:13:16;98808.28;;;25.28;79.43
18678;BME280;9469;51.114;13.914;2023-06-10T08:18:24;98815.38;;;24.06;81.88
18678;BME280;9469;51.114;13.914;2023-06-10T08:23:29;98820.81;;;24.59;80.37
18678;BME280;9469;51.114;13.914;2023-06-10T08:28:39;98820.84;;;24.38;79.97
18678;BME280;9469;51.114;13.914;2023-06-10T08:33:47;98840.50;;;23.68;82.18
18678;BME280;9469;51.114;13.914;2023-06-10T08:38:52;98837.91;;;24.20;83.00
18678;BME280;9469;51.114;13.914;2023-06-10T08:44:03;98835.47;;;23.77;82.23
18678;BME280;9469;51.114;13.914;2023-06-10T08:49:18;98828.13;;;23.98;82.20
18678;BME280;9469;51.114;13.914;2023-06-10T08:54:27;98827.00;;;24.06;80.91
18678;BME280;9469;51.114;13.914;2023-06-10T08:59:33;98826.66;;;24.22;81.02
18678;BME280;9469;51.114;13.914;2023-06-10T09:04:42;98832.47;;;24.20;80.77
18678;BME280;9469;51.114;13.914;2023-06-10T09:09:49;98820.81;;;24.66;79.62
18678;BME280;9469;51.114;13.914;2023-06-10T09:14:55;98811.81;;;25.11;79.71
18678;BME280;9469;51.114;13.914;2023-06-10T09:20:07;98813.34;;;25.23;77.61
18678;BME280;9469;51.114;13.914;2023-06-10T09:25:15;98820.84;;;24.80;71.71
18678;BME280;9469;51.114;13.914;2023-06-10T09:30:27;98814.28;;;25.78;71.89
18678;BME280;9469;51.114;13.914;2023-06-10T09:35:35;98823.41;;;25.29;68.73
18678;BME280;9469;51.114;13.914;2023-06-10T09:40:48;98834.81;;;24.82;68.98
18678;BME280;9469;51.114;13.914;2023-06-10T09:45:56;98831.28;;;25.10;69.07
18678;BME280;9469;51.114;13.914;2023-06-10T09:51:12;98819.28;;;24.75;70.20
18678;BME280;9469;51.114;13.914;2023-06-10T09:56:19;98830.13;;;24.93;71.68
18678;BME280;9469;51.114;13.914;2023-06-10T10:01:26;98834.28;;;25.36;69.83
18678;BME280;9469;51.114;13.914;2023-06-10T10:06:38;98833.88;;;25.38;71.64
18678;BME280;9469;51.114;13.914;2023-06-10T10:11:44;98830.97;;;26.46;70.40
18678;BME280;9469;51.114;13.914;2023-06-10T10:16:51;98828.63;;;25.86;71.64
18678;BME280;9469;51.114;13.914;2023-06-10T10:22:04;98828.03;;;26.22;72.22
18678;BME280;9469;51.114;13.914;2023-06-10T10:27:18;98827.94;;;26.33;70.89
18678;BME280;9469;51.114;13.914;2023-06-10T10:32:29;98825.00;;;26.13;71.38
18678;BME280;9469;51.114;13.914;2023-06-10T10:37:56;98825.38;;;26.60;69.79
18678;BME280;9469;51.114;13.914;2023-06-10T10:43:06;98814.72;;;26.28;69.64
18678;BME280;9469;51.114;13.914;2023-06-10T10:48:12;98820.31;;;26.10;69.11
18678;BME280;9469;51.114;13.914;2023-06-10T10:53:24;98816.44;;;26.59;67.91
18678;BME280;9469;51.114;13.914;2023-06-10T10:58:29;98816.13;;;25.95;67.34
18678;BME280;9469;51.114;13.914;2023-06-10T11:03:42;98808.72;;;25.92;68.40
18678;BME280;9469;51.114;13.914;2023-06-10T11:08:52;98806.88;;;26.41;66.98
18678;BME280;9469;51.114;13.914;2023-06-10T11:14:09;98802.72;;;26.25;65.52
18678;BME280;9469;51.114;13.914;2023-06-10T11:19:33;98801.25;;;26.99;67.47
18678;BME280;9469;51.114;13.914;2023-06-10T11:24:47;98803.50;;;26.67;65.55
18678;BME280;9469;51.114;13.914;2023-06-10T11:30:18;98798.81;;;27.45;64.16
18678;BME280;9469;51.114;13.914;2023-06-10T11:35:24;98786.16;;;26.91;65.26
18678;BME280;9469;51.114;13.914;2023-06-10T11:40:32;98778.00;;;27.82;63.54
18678;BME280;9469;51.114;13.914;2023-06-10T11:45:39;98778.72;;;27.59;64.30
18678;BME280;9469;51.114;13.914;2023-06-10T11:50:45;98797.50;;;26.86;63.87
18678;BME280;9469;51.114;13.914;2023-06-10T11:55:54;98782.63;;;27.85;62.26
18678;BME280;9469;51.114;13.914;2023-06-10T12:01:00;98773.81;;;26.31;66.21
18678;BME280;9469;51.114;13.914;2023-06-10T12:06:05;98778.00;;;26.43;66.44
18678;BME280;9469;51.114;13.914;2023-06-10T12:11:14;98789.97;;;26.97;66.02
18678;BME280;9469;51.114;13.914;2023-06-10T12:16:20;98775.59;;;26.93;63.24
18678;BME280;9469;51.114;13.914;2023-06-10T12:21:29;98778.41;;;26.82;62.34
18678;BME280;9469;51.114;13.914;2023-06-10T12:26:42;98775.03;;;27.05;62.62
18678;BME280;9469;51.114;13.914;2023-06-10T12:31:55;98763.81;;;26.99;62.07
18678;BME280;9469;51.114;13.914;2023-06-10T12:37:01;98757.88;;;27.68;61.73
18678;BME280;9469;51.114;13.914;2023-06-10T12:42:11;98767.84;;;26.88;61.22
18678;BME280;9469;51.114;13.914;2023-06-10T12:47:17;98757.72;;;26.88;62.93
18678;BME280;9469;51.114;13.914;2023-06-10T12:52:23;98760.63;;;26.67;62.64
18678;BME280;9469;51.114;13.914;2023-06-10T12:57:31;98758.56;;;26.82;60.23
18678;BME280;9469;51.114;13.914;2023-06-10T13:02:37;98753.63;;;26.66;60.08
18678;BME280;9469;51.114;13.914;2023-06-10T13:07:43;98760.03;;;26.49;60.12
18678;BME280;9469;51.114;13.914;2023-06-10T13:12:51;98743.13;;;27.32;59.03
18678;BME280;9469;51.114;13.914;2023-06-10T13:17:56;98753.03;;;27.19;54.75
18678;BME280;9469;51.114;13.914;2023-06-10T13:23:02;98755.91;;;27.69;56.69
18678;BME280;9469;51.114;13.914;2023-06-10T13:28:12;98755.56;;;27.07;55.10
18678;BME280;9469;51.114;13.914;2023-06-10T13:33:18;98749.41;;;27.29;54.35
18678;BME280;9469;51.114;13.914;2023-06-10T13:38:23;98746.25;;;27.31;55.19
18678;BME280;9469;51.114;13.914;2023-06-10T13:43:31;98735.50;;;27.77;54.93
18678;BME280;9469;51.114;13.914;2023-06-10T13:48:37;98729.59;;;27.22;56.33
18678;BME280;9469;51.114;13.914;2023-06-10T13:53:42;98740.69;;;27.41;57.67
18678;BME280;9469;51.114;13.914;2023-06-10T13:58:50;98731.94;;;26.52;54.14
18678;BME280;9469;51.114;13.914;2023-06-10T14:03:55;98747.09;;;26.94;54.00
18678;BME280;9469;51.114;13.914;2023-06-10T14:09:01;98739.41;;;27.49;52.67
18678;BME280;9469;51.114;13.914;2023-06-10T14:14:09;98750.09;;;27.07;52.36
18678;BME280;9469;51.114;13.914;2023-06-10T14:19:14;98754.28;;;27.15;50.96
18678;BME280;9469;51.114;13.914;2023-06-10T14:24:19;98743.38;;;27.45;51.24
18678;BME280;9469;51.114;13.914;2023-06-10T14:29:31;98740.75;;;27.64;51.77
18678;BME280;9469;51.114;13.914;2023-06-10T14:34:38;98739.56;;;27.35;51.58
18678;BME280;9469;51.114;13.914;2023-06-10T14:39:46;98733.47;;;27.24;52.27
18678;BME280;9469;51.114;13.914;2023-06-10T14:44:55;98731.25;;;27.16;53.69
18678;BME280;9469;51.114;13.914;2023-06-10T14:50:03;98738.00;;;26.70;54.62
18678;BME280;9469;51.114;13.914;2023-06-10T14:55:09;98737.59;;;27.06;55.15
18678;BME280;9469;51.114;13.914;2023-06-10T15:00:19;98735.38;;;26.97;56.37
18678;BME280;9469;51.114;13.914;2023-06-10T15:05:28;98725.28;;;27.24;57.20
18678;BME280;9469;51.114;13.914;2023-06-10T15:10:36;98720.78;;;26.77;57.98
18678;BME280;9469;51.114;13.914;2023-06-10T15:15:47;98734.44;;;26.73;58.96
18678;BME280;9469;51.114;13.914;2023-06-10T15:20:53;98737.75;;;26.95;59.37
18678;BME280;9469;51.114;13.914;2023-06-10T15:26:02;98727.88;;;27.05;59.01
18678;BME280;9469;51.114;13.914;2023-06-10T15:31:10;98741.50;;;26.71;58.50
18678;BME280;9469;51.114;13.914;2023-06-10T15:36:15;98719.16;;;26.83;55.61
18678;BME280;9469;51.114;13.914;2023-06-10T15:41:21;98739.78;;;26.87;55.33
18678;BME280;9469;51.114;13.914;2023-06-10T15:46:29;98718.47;;;27.39;55.49
18678;BME280;9469;51.114;13.914;2023-06-10T15:51:38;98729.41;;;27.06;56.58
18678;BME280;9469;51.114;13.914;2023-06-10T15:56:51;98722.00;;;26.72;56.83
18678;BME280;9469;51.114;13.914;2023-06-10T16:02:02;98722.25;;;26.48;57.73
18678;BME280;9469;51.114;13.914;2023-06-10T16:07:09;98735.22;;;26.37;57.58
18678;BME280;9469;51.114;13.914;2023-06-10T16:12:14;98738.56;;;26.51;56.38
18678;BME280;9469;51.114;13.914;2023-06-10T16:17:26;98739.00;;;26.46;56.12
18678;BME280;9469;51.114;13.914;2023-06-10T16:22:34;98741.47;;;26.33;55.77
18678;BME280;9469;51.114;13.914;2023-06-10T16:27:40;98740.28;;;25.87;56.96
18678;BME280;9469;51.114;13.914;2023-06-10T16:32:51;98744.19;;;25.82;58.45
18678;BME280;9469;51.114;13.914;2023-06-10T16:38:00;98736.34;;;25.88;58.07
18678;BME280;9469;51.114;13.914;2023-06-10T16:43:05;98739.53;;;25.79;58.68
18678;BME280;9469;51.114;13.914;2023-06-10T16:48:15;98745.41;;;25.74;58.78
18678;BME280;9469;51.114;13.914;2023-06-10T16:53:21;98740.38;;;25.73;58.89
18678;BME280;9469;51.114;13.914;2023-06-10T16:58:28;98744.16;;;25.89;58.38
18678;BME280;9469;51.114;13.914;2023-06-10T17:03:38;98753.53;;;25.81;59.31
18678;BME280;9469;51.114;13.914;2023-06-10T17:08:43;98758.09;;;25.98;59.49
18678;BME280;9469;51.114;13.914;2023-06-10T17:13:53;98754.06;;;26.20;58.70
18678;BME280;9469;51.114;13.914;2023-06-10T17:19:05;98763.34;;;26.26;58.40
18678;BME280;9469;51.114;13.914;2023-06-10T17:24:11;98764.97;;;26.20;58.16
18678;BME280;9469;51.114;13.914;2023-06-10T17:29:16;98769.28;;;26.14;58.98
18678;BME280;9469;51.114;13.914;2023-06-10T17:34:24;98778.47;;;25.76;59.88
18678;BME280;9469;51.114;13.914;2023-06-10T17:39:29;98778.00;;;25.88;60.32
18678;BME280;9469;51.114;13.914;2023-06-10T17:44:34;98773.09;;;25.66;59.75
18678;BME280;9469;51.114;13.914;2023-06-10T17:49:42;98785.19;;;25.61;61.24
18678;BME280;9469;51.114;13.914;2023-06-10T17:54:47;98786.75;;;25.62;60.38
18678;BME280;9469;51.114;13.914;2023-06-10T17:59:53;98779.81;;;25.40;61.27
18678;BME280;9469;51.114;13.914;2023-06-10T18:05:06;98782.56;;;25.43;61.26
18678;BME280;9469;51.114;13.914;2023-06-10T18:10:15;98789.69;;;25.02;61.28
18678;BME280;9469;51.114;13.914;2023-06-10T18:15:22;98792.44;;;24.88;61.13
18678;BME280;9469;51.114;13.914;2023-06-10T18:20:31;98787.41;;;24.86;61.04
18678;BME280;9469;51.114;13.914;2023-06-10T18:25:39;98790.88;;;24.90;61.95
18678;BME280;9469;51.114;13.914;2023-06-10T18:30:44;98791.28;;;24.75;62.26
18678;BME280;9469;51.114;13.914;2023-06-10T18:35:52;98805.28;;;24.73;63.17
18678;BME280;9469;51.114;13.914;2023-06-10T18:40:59;98808.38;;;24.61;63.52
18678;BME280;9469;51.114;13.914;2023-06-10T18:46:06;98813.81;;;24.54;64.87
18678;BME280;9469;51.114;13.914;2023-06-10T18:51:19;98818.88;;;24.38;65.41
18678;BME280;9469;51.114;13.914;2023-06-10T18:56:24;98827.81;;;24.24;65.94
18678;BME280;9469;51.114;13.914;2023-06-10T19:01:29;98828.56;;;24.18;67.62
18678;BME280;9469;51.114;13.914;2023-06-10T19:06:43;98842.09;;;23.83;69.15
18678;BME280;9469;51.114;13.914;2023-06-10T19:11:49;98845.13;;;23.67;66.90
18678;BME280;9469;51.114;13.914;2023-06-10T19:16:57;98862.59;;;23.63;66.75
18678;BME280;9469;51.114;13.914;2023-06-10T19:22:10;98872.59;;;23.48;66.30
18678;BME280;9469;51.114;13.914;2023-06-10T19:27:17;98885.63;;;23.25;68.64
18678;BME280;9469;51.114;13.914;2023-06-10T19:32:23;98899.84;;;23.04;69.59
18678;BME280;9469;51.114;13.914;2023-06-10T19:37:30;98902.06;;;22.88;69.62
18678;BME280;9469;51.114;13.914;2023-06-10T19:42:36;98905.53;;;22.45;72.64
18678;BME280;9469;51.114;13.914;2023-06-10T19:47:41;98905.88;;;22.40;71.58
18678;BME280;9469;51.114;13.914;2023-06-10T19:52:49;98913.13;;;22.65;71.37
18678;BME280;9469;51.114;13.914;2023-06-10T19:57:57;98906.00;;;22.54;68.47
18678;BME280;9469;51.114;13.914;2023-06-10T20:03:03;98911.66;;;22.38;66.14
18678;BME280;9469;51.114;13.914;2023-06-10T20:08:11;98901.41;;;22.21;67.12
18678;BME280;9469;51.114;13.914;2023-06-10T20:13:16;98905.66;;;22.19;67.12
18678;BME280;9469;51.114;13.914;2023-06-10T20:18:21;98916.09;;;22.17;67.03
18678;BME280;9469;51.114;13.914;2023-06-10T20:23:29;98928.09;;;22.16;67.18
18678;BME280;9469;51.114;13.914;2023-06-10T20:28:34;98928.16;;;21.89;67.62
18678;BME280;9469;51.114;13.914;2023-06-10T20:33:40;98931.91;;;21.81;67.28
18678;BME280;9469;51.114;13.914;2023-06-10T20:38:49;98940.94;;;21.63;67.34
18678;BME280;9469;51.114;13.914;2023-06-10T20:43:54;98943.13;;;21.50;67.65
18678;BME280;9469;51.114;13.914;2023-06-10T20:49:00;98943.28;;;21.34;67.38
18678;BME280;9469;51.114;13.914;2023-06-10T20:54:08;98942.50;;;21.34;66.18
18678;BME280;9469;51.114;13.914;2023-06-10T20:59:14;98948.59;;;21.27;66.26
18678;BME280;9469;51.114;13.914;2023-06-10T21:04:20;98949.25;;;21.21;65.06
18678;BME280;9469;51.114;13.914;2023-06-10T21:09:28;98950.09;;;21.25;65.02
18678;BME280;9469;51.114;13.914;2023-06-10T21:14:35;98945.34;;;21.18;64.01
18678;BME280;9469;51.114;13.914;2023-06-10T21:19:40;98959.97;;;21.14;63.21
18678;BME280;9469;51.114;13.914;2023-06-10T21:24:48;98968.38;;;21.09;63.53
18678;BME280;9469;51.114;13.914;2023-06-10T21:29:53;98965.38;;;20.91;63.94
18678;BME280;9469;51.114;13.914;2023-06-10T21:35:01;98968.34;;;20.83;64.30
18678;BME280;9469;51.114;13.914;2023-06-10T21:40:10;98972.75;;;20.49;65.84
18678;BME280;9469;51.114;13.914;2023-06-10T21:45:16;98977.59;;;20.21;67.88
18678;BME280;9469;51.114;13.914;2023-06-10T21:50:21;98973.13;;;19.90;68.75
18678;BME280;9469;51.114;13.914;2023-06-10T21:55:29;98979.34;;;20.13;68.32
18678;BME280;9469;51.114;13.914;2023-06-10T22:00:34;98979.78;;;19.96;67.40
18678;BME280;9469;51.114;13.914;2023-06-10T22:05:40;98987.88;;;19.77;67.40
18678;BME280;9469;51.114;13.914;2023-06-10T22:10:48;98986.78;;;19.62;67.63
18678;BME280;9469;51.114;13.914;2023-06-10T22:15:55;98989.53;;;19.47;66.82
18678;BME280;9469;51.114;13.914;2023-06-10T22:21:00;98995.94;;;19.58;66.87
18678;BME280;9469;51.114;13.914;2023-06-10T22:26:08;98991.03;;;19.13;67.33
18678;BME280;9469;51.114;13.914;2023-06-10T22:31:14;98988.47;;;19.04;67.07
18678;BME280;9469;51.114;13.914;2023-06-10T22:36:19;98991.38;;;18.96;66.21
18678;BME280;9469;51.114;13.914;2023-06-10T22:41:27;98982.03;;;19.09;66.01
18678;BME280;9469;51.114;13.914;2023-06-10T22:46:32;98974.16;;;19.00;66.11
18678;BME280;9469;51.114;13.914;2023-06-10T22:51:38;98985.78;;;19.04;65.88
18678;BME280;9469;51.114;13.914;2023-06-10T22:56:47;98978.06;;;19.03;66.27
18678;BME280;9469;51.114;13.914;2023-06-10T23:01:53;98981.44;;;18.84;66.06
18678;BME280;9469;51.114;13.914;2023-06-10T23:06:58;98987.56;;;18.81;65.79
18678;BME280;9469;51.114;13.914;2023-06-10T23:12:06;98986.41;;;18.82;65.48
18678;BME280;9469;51.114;13.914;2023-06-10T23:17:12;98983.72;;;18.82;65.42
18678;BME280;9469;51.114;13.914;2023-06-10T23:22:17;98979.53;;;18.69;65.04
18678;BME280;9469;51.114;13.914;2023-06-10T23:27:27;98983.00;;;18.70;64.33
18678;BME280;9469;51.114;13.914;2023-06-10T23:32:33;98983.88;;;18.58;64.73
18678;BME280;9469;51.114;13.914;2023-06-10T23:37:39;98988.19;;;18.47;65.26
18678;BME280;9469;51.114;13.914;2023-06-10T23:42:47;98991.31;;;18.49;64.68
18678;BME280;9469;51.114;13.914;2023-06-10T23:47:52;98983.78;;;18.27;65.13
18678;BME280;9469;51.114;13.914;2023-06-10T23:52:57;98987.88;;;18.09;64.74
18678;BME280;9469;51.114;13.914;2023-06-10T23:58:07;98997.28;;;18.15;64.21
